Time;durP1;ratioP1;P1;durP2;ratioP2;P2;SDS_P1;SDS_P2;PMS_P1;PMS_P2;Temp;Humidity;BMP_temperature;BMP_pressure;BME280_temperature;BME280_humidity;BME280_pressure;Samples;Min_cycle;Max_cycle;Signal;HPM_P1;HPM_P2
2021/10/26 00:02:01;;;;;;;15.15;3.33;;;;;;;17.79;47.75;100518.47;4426179;32;20059;-70
2021/10/26 00:04:27;;;;;;;12.55;3.08;;;;;;;17.64;48.13;100528.31;4425441;32;20029;-70
2021/10/26 00:06:53;;;;;;;8.73;3.40;;;;;;;17.53;48.28;100520.38;4428916;32;20053;-69
2021/10/26 00:09:19;;;;;;;10.32;2.55;;;;;;;17.87;47.60;100516.00;4425276;32;20068;-70
2021/10/26 00:11:45;;;;;;;13.88;3.00;;;;;;;17.51;48.34;100516.44;4425991;32;20437;-70
2021/10/26 00:14:11;;;;;;;8.30;2.85;;;;;;;17.60;48.06;100517.12;4418247;32;20026;-70
2021/10/26 00:16:37;;;;;;;12.70;2.95;;;;;;;17.89;47.46;100508.53;4422215;32;20348;-70
2021/10/26 00:19:03;;;;;;;16.12;3.17;;;;;;;17.49;48.48;100516.94;4424610;32;20078;-70
2021/10/26 00:21:28;;;;;;;7.35;2.65;;;;;;;17.71;48.06;100511.63;4425969;32;20433;-70
2021/10/26 00:23:54;;;;;;;8.68;3.20;;;;;;;17.88;47.55;100523.25;4425612;32;20060;-70
2021/10/26 00:26:20;;;;;;;7.93;2.75;;;;;;;17.72;47.91;100524.59;4427270;32;20038;-70
2021/10/26 00:28:45;;;;;;;6.85;2.67;;;;;;;17.77;47.76;100520.25;4420179;32;20026;-69
2021/10/26 00:31:12;;;;;;;10.95;2.47;;;;;;;17.85;47.53;100522.19;4421797;32;20033;-70
2021/10/26 00:33:38;;;;;;;11.07;3.03;;;;;;;17.92;47.69;100526.72;4425565;32;20030;-70
2021/10/26 00:36:04;;;;;;;7.50;2.40;;;;;;;17.80;47.53;100527.81;4424256;32;20133;-70
2021/10/26 00:38:30;;;;;;;13.68;3.08;;;;;;;17.91;47.62;100521.50;4425424;32;20078;-70
2021/10/26 00:40:57;;;;;;;7.30;2.50;;;;;;;18.24;46.81;100524.84;4427611;32;20090;-70
2021/10/26 00:43:22;;;;;;;16.02;3.20;;;;;;;18.39;46.49;100525.59;4423083;32;20364;-70
2021/10/26 00:45:48;;;;;;;12.00;2.80;;;;;;;18.37;46.57;100531.78;4424247;32;20097;-70
2021/10/26 00:48:14;;;;;;;10.05;2.40;;;;;;;18.45;46.29;100532.16;4424698;32;20425;-70
2021/10/26 00:50:40;;;;;;;5.87;2.45;;;;;;;18.58;46.03;100535.44;4425331;32;20148;-70
2021/10/26 00:53:06;;;;;;;7.85;2.35;;;;;;;18.73;45.50;100536.94;4425403;32;20082;-70
2021/10/26 00:55:32;;;;;;;6.87;2.00;;;;;;;18.91;45.29;100530.16;4426670;32;21093;-70
2021/10/26 00:57:58;;;;;;;9.50;2.25;;;;;;;18.80;45.41;100533.66;4424324;32;20495;-70
2021/10/26 01:00:23;;;;;;;7.87;2.45;;;;;;;18.92;45.17;100535.34;4424173;32;20077;-70
2021/10/26 01:02:49;;;;;;;7.05;2.12;;;;;;;19.01;45.05;100535.19;4425172;32;20097;-70
2021/10/26 01:05:15;;;;;;;10.52;2.30;;;;;;;19.09;44.87;100541.25;4426056;32;20038;-70
2021/10/26 01:07:41;;;;;;;6.62;2.33;;;;;;;19.17;44.71;100539.50;4424276;32;20069;-70
2021/10/26 01:10:08;;;;;;;9.63;2.17;;;;;;;19.34;44.49;100534.78;4426471;32;20488;-70
2021/10/26 01:12:36;;;;;;;7.25;2.35;;;;;;;19.48;44.21;100528.16;4421366;32;20100;-70
2021/10/26 01:15:03;;;;;;;11.35;2.50;;;;;;;19.37;44.32;100548.06;4426487;32;20339;-70
2021/10/26 01:17:29;;;;;;;12.13;2.75;;;;;;;19.46;43.99;100548.66;4425753;32;20133;-70
2021/10/26 01:19:56;;;;;;;8.27;2.50;;;;;;;19.05;44.87;100540.69;4426647;32;20037;-70
2021/10/26 01:22:27;;;;;;;7.20;2.15;;;;;;;19.27;44.49;100549.53;4426884;32;20066;-70
2021/10/26 01:24:53;;;;;;;12.15;2.55;;;;;;;19.50;44.11;100548.44;4413918;32;20093;-70
2021/10/26 01:27:20;;;;;;;9.73;2.42;;;;;;;19.39;44.36;100559.75;4424258;32;20077;-70
2021/10/26 01:29:47;;;;;;;9.38;2.28;;;;;;;19.28;44.28;100553.94;4423580;32;20018;-70
2021/10/26 01:32:15;;;;;;;7.93;2.58;;;;;;;19.19;44.53;100551.19;4427609;32;20112;-70
2021/10/26 01:34:41;;;;;;;8.18;2.08;;;;;;;19.29;44.02;100542.00;4430609;32;20021;-70
2021/10/26 01:37:09;;;;;;;7.22;2.87;;;;;;;19.25;44.38;100549.19;4426115;32;20092;-70
2021/10/26 01:39:36;;;;;;;6.55;2.40;;;;;;;19.38;44.15;100556.13;4425484;32;20065;-70
2021/10/26 01:42:03;;;;;;;9.32;2.75;;;;;;;19.18;44.59;100546.78;4428999;32;20034;-70
2021/10/26 01:44:29;;;;;;;11.90;2.58;;;;;;;19.12;44.81;100546.72;4418413;32;20070;-70
2021/10/26 01:46:55;;;;;;;12.23;2.83;;;;;;;19.06;44.93;100543.03;4419117;32;20064;-69
2021/10/26 01:49:23;;;;;;;9.40;2.67;;;;;;;19.22;44.54;100531.03;4429877;32;20086;-70
2021/10/26 01:51:50;;;;;;;13.20;2.65;;;;;;;19.17;44.68;100526.03;4429254;32;20671;-70
2021/10/26 01:54:16;;;;;;;7.85;2.17;;;;;;;19.18;44.65;100532.53;4426274;32;20089;-69
2021/10/26 01:56:42;;;;;;;16.08;3.05;;;;;;;19.10;44.78;100540.75;4426579;32;20467;-70
2021/10/26 01:59:09;;;;;;;13.00;3.42;;;;;;;19.09;44.84;100530.59;4427476;32;20237;-70
2021/10/26 02:01:35;;;;;;;10.63;2.50;;;;;;;19.09;44.88;100529.84;4423324;32;20041;-70
2021/10/26 02:04:01;;;;;;;7.82;2.50;;;;;;;18.98;45.18;100524.78;4430001;32;20111;-70
2021/10/26 02:06:27;;;;;;;6.87;2.58;;;;;;;18.50;46.40;100520.06;4430532;32;20069;-70
2021/10/26 14:54:20;;;;;;;8.32;1.65;;;;;;;25.41;40.80;100337.56;4467247;32;20077;-69
2021/10/26 14:56:45;;;;;;;8.32;1.58;;;;;;;25.43;40.86;100347.22;4462889;32;20085;-69
2021/10/26 14:59:11;;;;;;;12.60;2.20;;;;;;;25.36;40.57;100330.59;4458614;32;20077;-70
2021/10/26 15:01:38;;;;;;;8.35;1.87;;;;;;;24.79;41.67;100342.78;4466620;32;20187;-70
2021/10/26 15:04:05;;;;;;;8.38;2.03;;;;;;;25.16;41.18;100329.06;4462385;32;20091;-69
2021/10/26 15:06:35;;;;;;;7.43;1.90;;;;;;;24.68;41.80;100328.56;4461447;32;20117;-69
2021/10/26 15:09:11;;;;;;;8.82;2.10;;;;;;;25.04;41.21;100330.56;4455916;32;20045;-69
2021/10/26 15:11:39;;;;;;;11.35;2.58;;;;;;;25.57;40.36;100328.63;4462684;32;20068;-69
2021/10/26 15:14:08;;;;;;;11.15;1.83;;;;;;;25.77;39.76;100324.31;4463955;32;20542;-69
2021/10/26 15:16:37;;;;;;;8.98;1.60;;;;;;;26.20;38.94;100336.31;4462701;32;20183;-69
2021/10/26 15:19:04;;;;;;;7.05;1.83;;;;;;;26.54;37.97;100328.47;4458909;32;20089;-69
2021/10/26 15:21:44;;;;;;;11.63;2.00;;;;;;;27.52;36.41;100347.56;4461665;32;20363;-69
2021/10/26 15:35:06;;;;;;;11.32;1.70;;;;;;;27.24;36.07;100330.19;4427036;32;20034;-70
2021/10/26 15:37:32;;;;;;;5.37;1.45;;;;;;;27.43;36.05;100318.41;4430285;32;20033;-70
2021/10/26 15:39:57;;;;;;;11.27;1.85;;;;;;;27.08;36.30;100331.34;4428634;32;20079;-69
2021/10/26 15:42:24;;;;;;;11.60;1.80;;;;;;;26.58;37.32;100344.09;4427890;32;20669;-69
2021/10/26 15:44:49;;;;;;;9.02;2.05;;;;;;;26.28;37.84;100316.97;4425967;32;20144;-69
2021/10/26 15:47:16;;;;;;;5.12;1.70;;;;;;;25.76;39.09;100319.88;4427695;32;20054;-70
2021/10/26 15:49:42;;;;;;;9.98;1.90;;;;;;;25.63;39.43;100320.66;4426463;32;20896;-69
2021/10/26 15:52:08;;;;;;;13.77;1.67;;;;;;;25.00;40.37;100326.47;4430256;32;20411;-70
2021/10/26 15:54:35;;;;;;;5.45;1.50;;;;;;;25.12;40.42;100319.19;4430090;32;20081;-70
2021/10/26 15:57:01;;;;;;;7.85;1.60;;;;;;;25.20;40.22;100323.78;4433227;32;20103;-70
2021/10/26 15:59:28;;;;;;;5.75;1.70;;;;;;;24.87;40.71;100324.31;4427832;32;20211;-70
2021/10/26 16:01:56;;;;;;;14.27;2.12;;;;;;;24.98;40.72;100329.88;4426624;32;20084;-70
2021/10/26 16:04:23;;;;;;;8.00;1.87;;;;;;;24.87;41.02;100337.94;4425763;32;20115;-70
2021/10/26 16:06:49;;;;;;;9.75;1.77;;;;;;;24.56;41.61;100333.69;4426765;32;20064;-70
2021/10/26 16:09:22;;;;;;;5.28;1.85;;;;;;;24.44;41.96;100335.16;4431086;32;20099;-70
2021/10/26 16:11:53;;;;;;;6.25;1.98;;;;;;;24.65;41.51;100336.19;4430006;32;20129;-70
2021/10/26 16:14:20;;;;;;;8.02;1.83;;;;;;;23.95;43.04;100341.56;4430771;32;20376;-70
2021/10/26 16:16:46;;;;;;;9.93;1.70;;;;;;;24.06;42.86;100336.47;4414672;32;20064;-70
2021/10/26 16:19:13;;;;;;;6.82;1.50;;;;;;;23.79;43.58;100328.91;4427928;32;20057;-70
2021/10/26 16:21:39;;;;;;;6.47;2.12;;;;;;;23.86;43.39;100336.94;4432794;32;20096;-70
2021/10/26 16:24:07;;;;;;;9.85;2.00;;;;;;;23.84;43.65;100351.03;4427783;32;20504;-70
2021/10/26 16:26:39;;;;;;;9.00;2.58;;;;;;;23.29;44.80;100349.53;4430363;32;20536;-70
2021/10/26 16:29:05;;;;;;;7.30;2.10;;;;;;;23.47;44.55;100348.84;4427734;32;20096;-70
2021/10/26 16:31:31;;;;;;;12.05;1.30;;;;;;;23.35;44.57;100352.37;4427464;32;20098;-70
2021/10/26 16:33:59;;;;;;;7.93;1.67;;;;;;;23.25;44.79;100349.06;4427717;32;20375;-70
2021/10/26 16:36:29;;;;;;;7.45;2.05;;;;;;;23.43;44.41;100342.63;4425656;32;20154;-69
2021/10/26 16:38:56;;;;;;;7.65;2.22;;;;;;;23.34;44.62;100354.47;4419971;32;20103;-70
2021/10/26 16:41:22;;;;;;;11.27;2.17;;;;;;;23.39;44.44;100345.03;4418638;32;20048;-70
2021/10/26 16:44:00;;;;;;;6.93;1.90;;;;;;;23.16;44.83;100337.09;4418134;32;21161;-69
2021/10/26 16:46:41;;;;;;;9.15;2.22;;;;;;;23.22;44.77;100343.56;4419060;32;20041;-69
2021/10/26 16:49:07;;;;;;;9.95;2.55;;;;;;;23.22;44.61;100338.63;4418104;32;20088;-69
2021/10/26 16:51:33;;;;;;;6.70;1.85;;;;;;;22.99;45.18;100353.69;4421063;32;20099;-69
2021/10/26 16:54:00;;;;;;;6.62;2.22;;;;;;;23.21;44.78;100339.94;4418164;32;20157;-69
2021/10/26 16:56:27;;;;;;;14.10;1.95;;;;;;;22.79;45.61;100339.75;4418416;32;20068;-69
2021/10/26 16:58:55;;;;;;;5.80;1.67;;;;;;;23.09;45.12;100340.56;4416861;32;20143;-69
2021/10/26 17:01:25;;;;;;;8.95;2.08;;;;;;;23.38;44.49;100340.56;4416079;32;20126;-69
2021/10/26 17:03:53;;;;;;;7.70;1.50;;;;;;;22.74;45.70;100361.41;4420359;32;20070;-70
2021/10/26 17:06:20;;;;;;;14.20;2.50;;;;;;;23.18;44.89;100341.00;4419452;32;20512;-69
2021/10/26 17:08:46;;;;;;;14.55;1.98;;;;;;;22.89;45.18;100333.16;4419323;32;20165;-69
2021/10/26 17:11:12;;;;;;;7.40;2.00;;;;;;;22.97;44.93;100319.00;4415401;32;20081;-69
2021/10/26 17:13:40;;;;;;;6.97;1.65;;;;;;;22.94;45.05;100325.81;4402542;32;20064;-69
2021/10/26 17:16:06;;;;;;;7.90;1.92;;;;;;;22.85;45.15;100320.41;4416148;32;20054;-69
2021/10/26 17:18:34;;;;;;;7.20;2.05;;;;;;;22.86;44.83;100319.09;4418249;32;20549;-69
2021/10/26 17:21:00;;;;;;;8.88;1.62;;;;;;;23.15;44.49;100315.44;4416484;32;20104;-69
2021/10/26 17:23:26;;;;;;;6.82;2.10;;;;;;;22.76;45.06;100317.84;4417606;32;20025;-69
2021/10/26 17:25:52;;;;;;;5.30;1.87;;;;;;;22.95;44.79;100313.03;4416876;32;20098;-69
2021/10/26 17:28:20;;;;;;;10.77;2.22;;;;;;;22.75;45.30;100327.78;4418559;32;20073;-69
2021/10/26 17:30:49;;;;;;;8.23;1.73;;;;;;;22.78;45.22;100329.59;4416887;32;20076;-69
2021/10/26 17:33:15;;;;;;;8.07;2.00;;;;;;;22.73;45.29;100325.44;4414738;32;21117;-69
2021/10/26 17:35:41;;;;;;;12.95;2.45;;;;;;;22.48;45.30;100322.97;4417137;32;20384;-69
2021/10/26 17:38:06;;;;;;;8.23;1.90;;;;;;;22.54;45.26;100329.50;4420722;32;20111;-69
2021/10/26 17:40:59;;;;;;;6.65;1.62;;;;;;;22.63;44.92;100320.56;4417235;32;20084;-69
2021/10/26 17:43:19;;;;;;;6.20;1.80;;;;;;;22.68;44.79;100317.69;4415074;32;20057;-69
2021/10/26 17:45:45;;;;;;;8.45;1.75;;;;;;;22.67;44.65;100323.94;4414151;32;20191;-70
2021/10/26 17:48:11;;;;;;;6.75;2.03;;;;;;;22.32;45.41;100307.44;4418197;32;20599;-70
2021/10/26 17:50:38;;;;;;;12.63;2.20;;;;;;;22.55;45.20;100319.59;4406827;32;20234;-69
2021/10/26 17:53:04;;;;;;;5.75;1.95;;;;;;;22.82;44.65;100310.00;4419184;32;20026;-69
2021/10/26 17:55:30;;;;;;;8.57;2.25;;;;;;;22.43;45.44;100318.84;4418386;32;20559;-69
2021/10/26 17:57:57;;;;;;;10.50;2.05;;;;;;;22.25;46.09;100318.69;4415911;32;20108;-69
2021/10/26 18:00:23;;;;;;;7.70;1.65;;;;;;;22.64;45.21;100314.28;4420390;32;20158;-70
2021/10/26 18:02:49;;;;;;;9.00;2.20;;;;;;;22.69;45.39;100315.56;4419583;32;20085;-69
2021/10/26 18:05:15;;;;;;;11.60;1.70;;;;;;;22.70;45.38;100331.50;4416330;32;20120;-69
2021/10/26 18:07:42;;;;;;;8.05;2.40;;;;;;;22.53;45.88;100327.94;4414817;32;20383;-69
2021/10/26 18:10:08;;;;;;;5.25;1.70;;;;;;;22.31;46.64;100325.19;4416016;32;20041;-69
2021/10/26 18:12:34;;;;;;;8.73;1.85;;;;;;;22.70;45.83;100352.31;4418255;32;20056;-69
2021/10/26 18:14:59;;;;;;;8.80;2.30;;;;;;;22.38;46.74;100350.41;4417013;32;20527;-69
2021/10/26 18:17:25;;;;;;;8.70;2.25;;;;;;;22.32;47.04;100347.59;4419091;32;20422;-69
2021/10/26 18:19:52;;;;;;;7.03;2.03;;;;;;;22.33;47.09;100348.38;4416714;32;20076;-69
2021/10/26 18:22:18;;;;;;;8.75;2.15;;;;;;;22.64;46.90;100359.44;4414809;32;20103;-69
2021/10/26 18:24:44;;;;;;;7.62;2.35;;;;;;;22.39;47.53;100360.56;4417156;32;20137;-70
2021/10/26 18:27:12;;;;;;;7.43;2.22;;;;;;;22.53;47.37;100354.53;4414545;32;20033;-69
2021/10/26 18:29:39;;;;;;;7.18;1.95;;;;;;;22.67;47.29;100359.13;4417872;32;20044;-69
2021/10/26 18:32:06;;;;;;;5.22;2.03;;;;;;;22.36;48.11;100353.81;4416129;32;20091;-69
2021/10/26 18:34:32;;;;;;;6.18;2.47;;;;;;;22.41;48.11;100370.22;4418150;32;20092;-69
2021/10/26 18:36:57;;;;;;;6.20;1.92;;;;;;;;;;4414770;32;20038;-70
2021/10/26 18:39:27;;;;;;;5.80;2.05;;;;;;;22.38;48.12;100362.69;4417614;32;20106;-69
2021/10/26 18:41:55;;;;;;;7.57;2.47;;;;;;;22.21;48.48;100349.75;4413820;32;20077;-69
2021/10/26 18:44:36;;;;;;;7.12;2.92;;;;;;;22.33;48.42;100357.72;4418038;32;20359;-69
2021/10/26 18:47:02;;;;;;;8.45;2.30;;;;;;;22.51;47.81;100356.38;4416406;32;20037;-69
2021/10/26 18:49:30;;;;;;;7.40;2.22;;;;;;;22.41;48.11;100372.28;4414962;32;20122;-69
2021/10/26 18:51:57;;;;;;;5.03;2.03;;;;;;;22.30;48.25;100378.09;4413652;32;20131;-69
2021/10/26 18:54:26;;;;;;;11.40;2.45;;;;;;;22.44;48.20;100382.72;4416423;32;20565;-69
2021/10/26 18:56:51;;;;;;;7.28;3.00;;;;;;;22.34;48.28;100385.13;4418291;32;20049;-69
2021/10/26 18:59:17;;;;;;;5.50;2.03;;;;;;;22.16;48.56;100376.31;4403674;32;20508;-69
2021/10/26 19:01:44;;;;;;;7.97;2.42;;;;;;;22.09;48.59;100369.03;4413364;32;20134;-69
2021/10/26 19:04:10;;;;;;;6.97;2.42;;;;;;;22.35;48.01;100375.19;4415514;32;20424;-69
2021/10/26 19:06:44;;;;;;;8.70;2.37;;;;;;;21.89;48.88;100372.25;4421929;32;20071;-69
2021/10/26 19:09:11;;;;;;;9.13;2.37;;;;;;;22.13;48.60;100363.84;4416612;32;20073;-69
2021/10/26 19:11:36;;;;;;;7.97;2.40;;;;;;;22.10;48.59;100373.50;4416375;32;20074;-69
2021/10/26 19:14:02;;;;;;;7.62;2.28;;;;;;;22.00;48.87;100371.44;4414631;32;20066;-69
2021/10/26 19:16:29;;;;;;;9.38;2.53;;;;;;;22.35;48.09;100368.69;4418657;32;20553;-69
2021/10/26 19:18:54;;;;;;;9.57;2.47;;;;;;;21.88;49.07;100381.38;4415204;32;20101;-69
2021/10/26 19:21:20;;;;;;;6.28;2.03;;;;;;;22.08;48.53;100372.44;4416362;32;20520;-69
2021/10/26 19:23:46;;;;;;;9.80;2.30;;;;;;;22.12;48.44;100381.56;4417138;32;20647;-69
2021/10/26 19:26:13;;;;;;;6.50;2.53;;;;;;;22.24;48.14;100383.84;4415777;32;20042;-69
2021/10/26 19:28:40;;;;;;;8.63;2.65;;;;;;;22.26;48.02;100374.72;4413778;32;20104;-70
2021/10/26 19:31:08;;;;;;;9.43;2.28;;;;;;;22.23;47.99;100393.75;4416163;32;20045;-69
2021/10/26 19:33:36;;;;;;;12.23;2.15;;;;;;;22.51;47.56;100385.03;4415405;32;20074;-69
2021/10/26 19:36:03;;;;;;;8.13;2.37;;;;;;;22.08;48.62;100378.97;4417183;32;20065;-69
2021/10/26 19:38:30;;;;;;;4.05;2.08;;;;;;;22.23;48.33;100384.38;4416890;32;20077;-69
2021/10/26 19:40:57;;;;;;;8.38;2.15;;;;;;;22.01;48.68;100388.12;4417411;32;20056;-69
2021/10/26 19:43:24;;;;;;;9.95;2.05;;;;;;;22.32;48.20;100381.19;4412933;32;20030;-69
2021/10/26 19:45:50;;;;;;;7.37;2.15;;;;;;;22.02;48.83;100381.06;4414392;32;20162;-69
2021/10/26 19:48:16;;;;;;;6.85;2.00;;;;;;;22.27;48.48;100397.13;4402230;32;21416;-69
2021/10/26 19:50:42;;;;;;;9.55;1.77;;;;;;;22.34;48.43;100393.72;4414098;32;20038;-69
2021/10/26 19:53:07;;;;;;;8.20;1.80;;;;;;;22.07;49.07;100394.59;4419061;32;20422;-69
2021/10/26 19:55:33;;;;;;;6.37;2.03;;;;;;;22.32;48.36;100398.41;4415644;32;20077;-69
2021/10/26 19:57:59;;;;;;;6.18;1.23;;;;;;;22.30;48.56;100407.53;4416538;32;20029;-69
2021/10/26 20:00:25;;;;;;;4.20;1.17;;;;;;;22.17;49.01;100426.59;4417151;32;20497;-69
2021/10/26 20:02:55;;;;;;;12.30;1.52;;;;;;;22.36;48.55;100411.16;4415431;32;20026;-69
2021/10/26 20:05:22;;;;;;;5.60;1.40;;;;;;;22.36;48.98;100404.66;4417635;32;20090;-69
2021/10/26 20:07:48;;;;;;;6.03;1.27;;;;;;;22.33;48.95;100414.31;4415810;32;20053;-69
2021/10/26 20:10:14;;;;;;;4.55;1.50;;;;;;;22.14;49.28;100410.47;4413620;32;20072;-69
2021/10/26 20:12:42;;;;;;;6.70;1.65;;;;;;;22.50;48.49;100403.56;4416890;32;20086;-69
2021/10/26 20:15:09;;;;;;;9.20;1.30;;;;;;;22.18;49.20;100396.66;4420054;32;20313;-69
2021/10/26 20:17:36;;;;;;;4.15;1.30;;;;;;;22.12;49.26;100382.31;4420897;32;20064;-69
2021/10/26 20:20:09;;;;;;;3.80;1.45;;;;;;;22.39;48.84;100384.28;4418966;32;20074;-69
2021/10/26 20:22:47;;;;;;;6.40;1.42;;;;;;;22.50;48.14;100395.75;4418764;32;20400;-69
2021/10/26 20:25:19;;;;;;;7.12;1.92;;;;;;;22.33;48.53;100392.13;4416574;32;20089;-69
2021/10/26 20:27:59;;;;;;;4.32;1.02;;;;;;;22.33;48.79;100392.13;4419849;32;20069;-69
2021/10/26 20:30:27;;;;;;;9.98;1.25;;;;;;;22.61;47.75;100386.31;4416800;32;20030;-69
2021/10/26 20:32:53;;;;;;;3.80;1.48;;;;;;;22.48;48.10;100377.47;4418982;32;20073;-69
2021/10/26 20:35:19;;;;;;;6.62;1.33;;;;;;;22.29;48.35;100362.97;4421349;32;20073;-69
2021/10/26 20:37:46;;;;;;;5.47;1.20;;;;;;;22.41;48.10;100373.09;4421360;32;20037;-69
2021/10/26 20:40:13;;;;;;;5.82;1.27;;;;;;;22.68;47.62;100372.19;4417651;32;20366;-69
2021/10/26 20:42:40;;;;;;;4.53;1.17;;;;;;;22.87;47.09;100369.44;4417746;32;20371;-69
2021/10/26 20:45:06;;;;;;;8.30;1.12;;;;;;;22.48;47.87;100366.00;4416622;32;20090;-69
2021/10/26 20:47:32;;;;;;;6.97;1.12;;;;;;;22.39;48.08;100364.22;4415438;32;20030;-69
2021/10/26 20:49:58;;;;;;;6.18;1.20;;;;;;;22.21;48.61;100364.06;4416071;32;20010;-69
2021/10/26 20:52:24;;;;;;;7.28;1.10;;;;;;;22.00;48.99;100380.81;4419562;32;20052;-69
2021/10/26 20:54:52;;;;;;;6.35;1.77;;;;;;;22.35;48.07;100374.41;4418688;32;20082;-69
2021/10/26 20:57:20;;;;;;;6.05;1.30;;;;;;;22.29;48.31;100382.25;4417558;32;20113;-69
2021/10/26 20:59:46;;;;;;;6.60;1.30;;;;;;;22.24;48.71;100383.84;4404808;32;20486;-69
2021/10/26 21:02:12;;;;;;;6.85;1.33;;;;;;;22.35;48.16;100388.75;4416463;32;20023;-69
2021/10/26 21:04:38;;;;;;;5.50;0.90;;;;;;;22.06;48.81;100398.75;4419260;32;20115;-69
2021/10/26 21:07:04;;;;;;;7.55;1.67;;;;;;;21.88;49.19;100384.25;4418515;32;20369;-69
2021/10/26 21:09:29;;;;;;;5.82;1.30;;;;;;;22.20;48.56;100385.41;4416162;32;20057;-69
2021/10/26 21:11:55;;;;;;;5.00;1.02;;;;;;;22.27;48.39;100382.03;4415388;32;20333;-69
2021/10/26 21:14:21;;;;;;;6.05;1.20;;;;;;;22.34;48.10;100407.25;4418826;32;20122;-69
2021/10/26 21:16:47;;;;;;;6.45;1.40;;;;;;;22.41;47.98;100364.47;4417008;32;20044;-69
2021/10/26 21:19:12;;;;;;;5.22;1.15;;;;;;;22.40;47.95;100388.72;4417678;32;20033;-69
2021/10/26 21:21:39;;;;;;;8.77;1.05;;;;;;;22.39;48.01;100386.37;4416619;32;20045;-68
2021/10/26 21:24:05;;;;;;;12.73;1.30;;;;;;;21.99;48.88;100399.31;4414560;32;20037;-69
2021/10/26 21:26:31;;;;;;;7.43;1.60;;;;;;;22.61;47.53;100415.00;4403988;32;20033;-69
2021/10/26 21:28:57;;;;;;;3.67;1.00;;;;;;;22.80;46.94;100396.59;4417903;32;20370;-69
2021/10/26 21:31:29;;;;;;;8.23;1.45;;;;;;;22.66;47.18;100380.53;4415598;32;20022;-68
2021/10/26 21:33:59;;;;;;;7.70;1.05;;;;;;;22.80;47.25;100381.50;4420036;32;20032;-68
2021/10/26 21:36:30;;;;;;;7.95;1.98;;;;;;;22.36;48.24;100387.47;4417679;32;20037;-69
2021/10/26 21:38:55;;;;;;;5.30;1.05;;;;;;;22.33;48.12;100388.50;4418284;32;20064;-69
2021/10/26 21:41:22;;;;;;;5.20;1.08;;;;;;;22.29;48.32;100380.19;4415562;32;20661;-69
2021/10/26 21:43:48;;;;;;;4.00;1.10;;;;;;;22.37;48.15;100384.03;4416378;32;20102;-71
2021/10/26 21:46:14;;;;;;;3.67;1.10;;;;;;;22.16;48.55;100379.19;4415528;32;20037;-69
2021/10/26 21:48:39;;;;;;;5.85;1.10;;;;;;;22.32;48.23;100375.47;4417822;32;20136;-71
2021/10/26 21:51:05;;;;;;;5.85;1.15;;;;;;;22.45;47.82;100372.78;4417766;32;20360;-70
2021/10/26 21:53:31;;;;;;;5.87;0.95;;;;;;;22.39;47.87;100392.09;4417808;32;20040;-70
2021/10/26 21:55:56;;;;;;;9.55;1.10;;;;;;;22.08;48.64;100415.44;4405302;32;20053;-70
2021/10/26 21:58:22;;;;;;;7.78;1.20;;;;;;;22.37;47.95;100389.75;4417871;32;20046;-70
2021/10/26 22:00:48;;;;;;;2.85;0.88;;;;;;;22.18;48.42;100391.69;4415119;32;20142;-70
2021/10/26 22:03:13;;;;;;;4.12;1.25;;;;;;;22.08;48.62;100401.88;4418908;32;20018;-70
2021/10/26 22:05:39;;;;;;;3.78;0.95;;;;;;;22.35;48.06;100405.94;4417436;32;20382;-70
2021/10/26 22:08:05;;;;;;;4.95;1.02;;;;;;;22.26;48.26;100412.78;4417846;32;20043;-70
2021/10/26 22:10:30;;;;;;;8.00;1.15;;;;;;;22.37;47.91;100409.84;4420427;32;20109;-70
2021/10/26 22:12:56;;;;;;;3.05;1.00;;;;;;;22.70;47.23;100400.34;4419256;32;20082;-70
2021/10/26 22:15:23;;;;;;;4.25;1.23;;;;;;;22.57;47.43;100408.72;4418934;32;20358;-70
2021/10/26 22:17:49;;;;;;;9.13;1.10;;;;;;;22.17;48.27;100410.19;4416135;32;20401;-70
2021/10/26 22:20:15;;;;;;;6.20;1.17;;;;;;;22.57;47.42;100415.25;4414071;32;20030;-70
2021/10/26 22:22:43;;;;;;;5.25;1.25;;;;;;;22.75;47.33;100408.12;4415620;32;20018;-70
2021/10/26 22:25:09;;;;;;;3.72;0.73;;;;;;;22.89;46.96;100416.34;4418214;32;20430;-70
2021/10/26 22:27:35;;;;;;;5.43;1.12;;;;;;;22.50;47.58;100406.44;4416588;32;20049;-70
2021/10/26 22:30:04;;;;;;;5.85;1.20;;;;;;;22.90;46.94;100414.28;4414440;32;20363;-70
2021/10/26 22:32:29;;;;;;;3.55;0.80;;;;;;;23.01;46.57;100417.84;4417304;32;20343;-70
2021/10/26 22:34:55;;;;;;;7.40;1.10;;;;;;;22.90;46.73;100405.69;4414998;32;20103;-70
2021/10/26 22:37:22;;;;;;;3.70;1.08;;;;;;;22.49;47.65;100407.72;4416189;32;20083;-70
2021/10/26 22:39:49;;;;;;;7.50;1.30;;;;;;;22.95;46.59;100396.25;4412554;32;20410;-70
2021/10/26 22:42:14;;;;;;;8.25;1.12;;;;;;;22.57;47.54;100405.88;4403494;32;20077;-70
2021/10/26 22:44:40;;;;;;;5.03;1.10;;;;;;;22.52;47.56;100393.13;4403106;32;20038;-70
2021/10/26 22:47:06;;;;;;;7.78;1.27;;;;;;;22.56;47.52;100392.84;4416008;32;20521;-70
2021/10/26 22:49:32;;;;;;;4.00;1.10;;;;;;;22.35;48.07;100395.28;4415270;32;20018;-70
2021/10/26 22:52:00;;;;;;;2.75;0.88;;;;;;;22.49;47.85;100397.00;4412883;32;20143;-70
2021/10/26 22:54:26;;;;;;;9.32;1.00;;;;;;;22.35;48.10;100391.62;4414585;32;20069;-70
2021/10/26 22:56:54;;;;;;;5.12;1.35;;;;;;;22.31;47.95;100394.00;4413950;32;20104;-70
2021/10/26 22:59:21;;;;;;;5.97;1.20;;;;;;;22.68;47.09;100392.25;4415064;32;21137;-70
2021/10/26 23:01:47;;;;;;;5.82;1.00;;;;;;;22.39;47.75;100378.56;4415205;32;20605;-70
2021/10/26 23:04:12;;;;;;;1.92;0.62;;;;;;;22.38;47.76;100394.22;4418662;32;20081;-70
2021/10/26 23:06:38;;;;;;;4.97;0.75;;;;;;;22.11;48.40;100382.84;4416074;32;20099;-70
2021/10/26 23:09:05;;;;;;;4.93;0.85;;;;;;;22.44;47.79;100368.38;4413920;32;20474;-70
2021/10/26 23:11:31;;;;;;;4.78;0.98;;;;;;;22.62;47.28;100371.44;4413695;32;20068;-69
2021/10/26 23:13:57;;;;;;;4.00;0.85;;;;;;;22.61;47.30;100369.09;4416868;32;20053;-70
2021/10/26 23:16:23;;;;;;;10.18;0.80;;;;;;;22.70;47.23;100372.41;4418195;32;20362;-69
2021/10/26 23:18:51;;;;;;;8.40;0.88;;;;;;;22.16;48.18;100365.66;4413983;32;20030;-70
2021/10/26 23:21:17;;;;;;;3.80;0.85;;;;;;;22.43;47.61;100386.91;4415168;32;20135;-69
2021/10/26 23:23:43;;;;;;;7.95;1.08;;;;;;;22.10;48.35;100384.16;4417472;32;20059;-70
2021/10/26 23:26:09;;;;;;;5.95;0.80;;;;;;;22.39;47.64;100381.44;4416264;32;20386;-70
2021/10/26 23:28:35;;;;;;;4.70;1.02;;;;;;;22.67;47.16;100381.31;4413206;32;20127;-69
2021/10/26 23:31:01;;;;;;;5.35;0.93;;;;;;;22.07;48.46;100402.41;4417880;32;20042;-69
2021/10/26 23:33:27;;;;;;;6.03;0.75;;;;;;;22.58;47.44;100382.38;4416045;32;20176;-69
2021/10/26 23:35:52;;;;;;;6.53;1.02;;;;;;;22.37;47.87;100371.81;4417506;32;20113;-69
2021/10/26 23:38:18;;;;;;;6.78;0.98;;;;;;;22.47;47.48;100381.66;4415029;32;20079;-69
2021/10/26 23:40:45;;;;;;;4.28;0.75;;;;;;;22.50;47.37;100377.75;4418275;32;20321;-69
2021/10/26 23:43:13;;;;;;;8.18;1.10;;;;;;;22.57;47.32;100380.06;4412453;32;20655;-70
2021/10/26 23:45:40;;;;;;;4.30;0.77;;;;;;;22.86;46.82;100380.13;4413397;32;20379;-69
2021/10/26 23:48:21;;;;;;;5.68;1.17;;;;;;;22.75;46.91;100382.28;4420979;32;20077;-69
2021/10/26 23:50:47;;;;;;;5.65;0.70;;;;;;;22.93;46.42;100387.38;4416470;32;20025;-70
2021/10/26 23:53:13;;;;;;;6.70;1.08;;;;;;;22.97;46.26;100403.00;4418263;32;20460;-70
2021/10/26 23:55:39;;;;;;;5.25;0.77;;;;;;;23.22;45.79;100389.50;4418693;32;20372;-69
